Atlanta, Louisiana
Current Conditions -  °F | °C
As of 10:15 AM on Wednesday 26 Nov 2014 (Local Time) from KIER Reporting Station
Clear Clear  
Wind Chill: 60°   Ceiling: Unl
Heat Index: 60°   Visibility: 10mi
Dew Point: 41°   Wind: 9mph
Humidity: 49%   Direction: 240°WSW
Pressure: 30.18"   Gusts: 23mph
Location:  31.81°N, 92.74°W
Report Text: KIER 261615Z AUTO 24008G20KT 10SM CLR 16/05 A3018 RMK AO2 T01580050
Loading
Personal Weather Stations






























Interactive Weather Map New forecast layout! Learn more

10-Day Weather Forecast

Advertisements
Track Severe Weather on mobile